Augusta Regional At Bush Field
KAGS : now visible

Airfield :











YOU CAN JOIN US ON...

 
LOGIN :

Register | Disclaimer

   EN    FR    IT 

 









Legend :    VFR   Marginal VFR   IFR   Intensive IFR   Very Intensive IFR
Visi :
Ceiling :
>= 8 km
>= 3000ft
5 to 8 km
1000 to 3000 ft
1500m to 5 km
500 to 1000 ft
800 to 1500m
200 to 500 ft
< 800m
< 200 ft
Symbols :   Thunderstorms  Fog  Heavy snow  Heavy precipitations  Wind > 20 kt






- Airport Elevation : 144 ft
- IATA code : AGS


KAGS - Augusta Regional At Bush Field

CURRENT METAR :
  • 140853Z AUTO 05005KT 10SM OVC025 04/M06 A3033 RMK AO2 SLP269 T00441056 56006

EXPIRED METARs :
  • 140753Z AUTO 05005KT 10SM OVC023 04/M05 A3033 RMK AO2 SLP271 T00441050
  • 140653Z AUTO 05006KT 10SM OVC024 04/M04 A3033 RMK AO2 SLP272 T00391039

TAF KAGS
Valid from the 14 at 09:00 until the 15 at 06:00 UTC


140857Z 1409/1506 03005KT P6SM BKN025 OVC200
FM141700 02009KT P6SM VCSH SCT015 OVC025
FM142100 01009KT 5SM -RA BR OVC020
FM150400 36006KT 5SM -RA BR BKN007 OVC015



MET'MAP, your aeronautical weather chart ! - Copyright ORBIFLY December 2007 - Disclaimer

ORBIFLY MET'MAP TEAM :

Programming & Development : Alexandra Zaïnal
Concept & Development : Baudouin d'Aumeries
Co-Development & Prog : Marc-Olivier Méhu
Technical & hardware support : Manuel Goepfert

Contact : metmap@orbifly.com




SOURCES & CREDITS :

   NOAA       Earth
Advisory